createdAt,value
2017-08-12T00:01:21.618Z,37.50
2017-08-12T00:03:49.164Z,38.95
2017-08-12T00:06:16.663Z,44.65
2017-08-12T00:08:44.259Z,48.17
2017-08-12T00:11:11.780Z,44.05
2017-08-12T00:13:39.306Z,34.60
2017-08-12T00:16:06.886Z,50.15
2017-08-12T00:18:34.428Z,51.00
2017-08-12T00:21:01.996Z,45.28
2017-08-12T00:23:29.592Z,44.38
2017-08-12T00:25:57.136Z,44.05
2017-08-12T00:28:24.667Z,41.58
2017-08-12T00:30:52.358Z,31.90
2017-08-12T00:33:19.900Z,36.05
2017-08-12T00:35:47.445Z,35.15
2017-08-12T00:38:15.144Z,41.45
2017-08-12T00:40:42.692Z,36.50
2017-08-12T00:43:10.205Z,36.15
2017-08-12T00:45:37.973Z,38.55
2017-08-12T00:48:05.461Z,36.55
2017-08-12T00:50:32.983Z,40.58
2017-08-12T00:53:00.578Z,31.42
2017-08-12T00:55:28.139Z,33.65
2017-08-12T00:57:55.672Z,34.20
2017-08-12T01:00:23.249Z,42.30
2017-08-12T01:02:50.801Z,35.88
2017-08-12T01:05:19.360Z,45.72
2017-08-12T01:07:46.948Z,37.42
2017-08-12T01:10:14.475Z,33.05
2017-08-12T01:12:41.965Z,31.23
2017-08-12T01:15:09.706Z,33.13
2017-08-12T01:17:37.243Z,37.35
2017-08-12T01:20:04.748Z,34.67
2017-08-12T01:22:32.347Z,38.22
2017-08-12T01:24:59.907Z,41.55
2017-08-12T01:27:27.463Z,35.53
2017-08-12T01:29:55.043Z,39.58
2017-08-12T01:32:22.599Z,39.22
2017-08-12T01:34:50.132Z,38.92
2017-08-12T01:37:17.912Z,37.67
2017-08-12T01:39:45.433Z,41.28
2017-08-12T01:42:13.034Z,38.60
2017-08-12T01:44:40.650Z,39.53
2017-08-12T01:47:08.198Z,46.05
2017-08-12T01:49:35.733Z,43.70
2017-08-12T01:52:03.465Z,50.15
2017-08-12T01:54:30.967Z,42.10
2017-08-12T01:56:58.498Z,45.15
2017-08-12T01:59:26.076Z,52.45
2017-08-12T02:01:53.597Z,45.33
2017-08-12T02:04:21.147Z,35.97
2017-08-12T02:06:48.735Z,39.50
2017-08-12T02:09:16.273Z,39.40
2017-08-12T02:11:43.822Z,27.85
2017-08-12T02:14:11.346Z,32.10
2017-08-12T02:16:38.909Z,26.42
2017-08-12T02:19:06.434Z,23.00
2017-08-12T02:21:34.088Z,21.35
2017-08-12T02:24:01.618Z,14.70
2017-08-12T02:26:29.099Z,11.50
2017-08-12T02:28:56.692Z,10.98
2017-08-12T02:31:24.215Z,7.28
2017-08-12T02:33:51.727Z,6.72
2017-08-12T02:36:19.307Z,5.95
2017-08-12T02:38:46.826Z,5.87
2017-08-12T02:41:14.383Z,6.20
2017-08-12T02:43:41.948Z,7.55
2017-08-12T02:46:09.490Z,11.70
2017-08-12T02:48:37.069Z,5.07
2017-08-12T02:51:04.599Z,5.35
2017-08-12T02:53:32.163Z,5.00
2017-08-12T02:55:59.652Z,7.40
2017-08-12T02:58:27.272Z,7.03
2017-08-12T03:00:54.792Z,8.00
2017-08-12T03:03:22.321Z,17.25
2017-08-12T03:05:49.890Z,4.32
2017-08-12T03:08:17.392Z,5.32
2017-08-12T03:10:44.959Z,4.82
2017-08-12T03:13:12.538Z,7.45
2017-08-12T03:15:40.028Z,5.22
2017-08-12T03:18:07.595Z,6.57
2017-08-12T03:20:35.182Z,6.35
2017-08-12T03:23:02.685Z,6.90
2017-08-12T03:25:30.189Z,10.93
2017-08-12T03:27:57.764Z,5.60
2017-08-12T03:30:25.292Z,7.72
2017-08-12T03:32:52.836Z,6.93
2017-08-12T03:35:20.392Z,8.07
2017-08-12T03:37:47.917Z,4.35
2017-08-12T03:40:15.446Z,10.85
2017-08-12T03:42:43.136Z,6.07
2017-08-12T03:45:10.685Z,6.72
2017-08-12T03:47:38.217Z,5.70
2017-08-12T03:50:05.804Z,6.40
2017-08-12T03:52:33.349Z,4.85
2017-08-12T03:55:00.877Z,8.27
2017-08-12T03:57:28.419Z,4.30
2017-08-12T03:59:55.972Z,5.22
2017-08-12T04:02:23.517Z,6.40
2017-08-12T04:04:51.245Z,4.53
2017-08-12T04:07:18.729Z,4.43
2017-08-12T04:09:46.283Z,8.50
2017-08-12T04:12:14.001Z,6.15
2017-08-12T04:14:41.555Z,8.95
2017-08-12T04:17:09.140Z,22.33
2017-08-12T04:19:36.861Z,7.97
2017-08-12T04:22:04.388Z,13.93
2017-08-12T04:24:31.900Z,11.48
2017-08-12T04:26:59.455Z,6.85
2017-08-12T04:29:26.966Z,4.90
2017-08-12T04:31:54.548Z,1.60
2017-08-12T04:34:22.125Z,2.22
2017-08-12T04:36:49.650Z,5.32
2017-08-12T04:39:17.185Z,1.60
2017-08-12T04:41:44.758Z,12.52
2017-08-12T04:44:12.302Z,2.65
2017-08-12T04:46:39.830Z,2.10
2017-08-12T04:49:07.370Z,2.03
2017-08-12T04:51:34.939Z,2.55
2017-08-12T04:54:02.482Z,3.55
2017-08-12T04:56:30.078Z,1.90
2017-08-12T04:58:57.633Z,5.53
2017-08-12T05:01:25.175Z,1.50
2017-08-12T05:03:52.756Z,1.30
2017-08-12T05:06:20.299Z,1.52
2017-08-12T05:08:47.826Z,1.33
2017-08-12T05:11:15.398Z,1.50
2017-08-12T05:13:42.928Z,3.22
2017-08-12T05:16:10.451Z,1.60
2017-08-12T05:18:37.995Z,4.87
2017-08-12T05:21:05.556Z,2.70
2017-08-12T05:23:33.094Z,1.27
2017-08-12T05:26:00.713Z,1.00
2017-08-12T05:28:28.274Z,2.35
2017-08-12T05:30:55.825Z,2.45
2017-08-12T05:33:23.399Z,0.80
2017-08-12T05:35:50.950Z,0.70
2017-08-12T05:38:18.478Z,0.80
2017-08-12T05:40:46.059Z,0.80
2017-08-12T05:43:13.611Z,0.70
2017-08-12T05:45:41.152Z,1.70
2017-08-12T05:48:08.732Z,0.80
2017-08-12T05:50:36.237Z,0.73
2017-08-12T05:53:03.804Z,1.62
2017-08-12T05:55:31.339Z,0.80
2017-08-12T05:57:58.869Z,2.05
2017-08-12T06:00:26.423Z,0.80
2017-08-12T06:02:54.443Z,0.70
2017-08-12T06:05:22.007Z,0.70
2017-08-12T06:07:49.550Z,1.00
2017-08-12T06:10:17.156Z,9.82
2017-08-12T06:12:44.714Z,0.75
2017-08-12T06:15:12.270Z,1.00
2017-08-12T06:17:39.805Z,1.20
2017-08-12T06:20:07.414Z,6.18
2017-08-12T06:22:34.968Z,1.10
2017-08-12T06:25:02.551Z,2.55
2017-08-12T06:27:30.112Z,0.70
2017-08-12T06:29:57.692Z,0.70
2017-08-12T06:32:25.389Z,0.70
2017-08-12T06:34:52.992Z,1.35
2017-08-12T06:37:20.487Z,0.70
2017-08-12T06:39:48.176Z,1.25
2017-08-12T06:42:15.770Z,0.70
2017-08-12T06:44:43.358Z,1.42
2017-08-12T06:47:10.954Z,0.80
2017-08-12T06:49:38.542Z,1.20
2017-08-12T06:52:06.074Z,1.80
2017-08-12T06:54:33.603Z,0.95
2017-08-12T06:57:01.144Z,1.00
2017-08-12T06:59:28.658Z,0.90
2017-08-12T07:01:56.173Z,0.70
2017-08-12T07:04:23.753Z,0.70
2017-08-12T07:06:51.343Z,0.70
2017-08-12T07:09:18.960Z,0.70
2017-08-12T07:11:46.513Z,1.00
2017-08-12T07:14:14.053Z,0.70
2017-08-12T07:16:41.850Z,5.68
2017-08-12T07:19:09.458Z,0.70
2017-08-12T07:21:37.316Z,0.80
2017-08-12T07:24:04.969Z,0.98
2017-08-12T07:26:32.593Z,0.80
2017-08-12T07:29:00.211Z,0.80
2017-08-12T07:31:28.464Z,0.90
2017-08-12T07:33:55.999Z,1.02
2017-08-12T07:36:23.554Z,0.80
2017-08-12T07:38:51.173Z,0.80
2017-08-12T07:41:18.722Z,1.17
2017-08-12T07:43:47.347Z,1.10
2017-08-12T07:46:14.937Z,2.30
2017-08-12T07:48:42.489Z,1.60
2017-08-12T07:51:10.123Z,2.65
2017-08-12T07:53:37.656Z,0.80
2017-08-12T07:56:05.286Z,1.90
2017-08-12T07:58:32.869Z,0.70
2017-08-12T08:01:00.431Z,1.20
2017-08-12T08:03:28.050Z,0.73
2017-08-12T08:05:55.607Z,0.70
2017-08-12T08:08:23.169Z,0.73
2017-08-12T08:10:50.721Z,0.70
2017-08-12T08:13:18.244Z,0.80
2017-08-12T08:15:45.870Z,0.60
2017-08-12T08:18:13.437Z,0.80
2017-08-12T08:20:40.979Z,0.80
2017-08-12T08:23:08.554Z,3.40
2017-08-12T08:25:36.101Z,1.00
2017-08-12T08:28:03.631Z,1.20
2017-08-12T08:30:31.419Z,1.10
2017-08-12T08:32:58.996Z,3.95
2017-08-12T08:35:26.651Z,2.55
2017-08-12T08:37:54.325Z,1.55
2017-08-12T08:40:21.859Z,2.87
2017-08-12T08:42:49.444Z,2.55
2017-08-12T08:45:17.780Z,2.12
2017-08-12T08:47:45.334Z,1.17
2017-08-12T08:50:12.910Z,1.95
2017-08-12T08:52:40.520Z,1.00
2017-08-12T08:55:08.041Z,0.80
2017-08-12T08:57:35.610Z,5.87
2017-08-12T09:00:03.749Z,3.17
2017-08-12T09:02:31.395Z,4.82
2017-08-12T09:04:58.975Z,1.65
2017-08-12T09:07:26.646Z,2.00
2017-08-12T09:09:54.409Z,1.65
2017-08-12T09:12:22.000Z,1.60
2017-08-12T09:14:49.579Z,7.47
2017-08-12T09:17:17.127Z,3.47
2017-08-12T09:19:44.667Z,1.23
2017-08-12T09:22:12.252Z,1.17
2017-08-12T09:24:39.821Z,2.83
2017-08-12T09:27:07.377Z,4.32
2017-08-12T09:29:34.990Z,1.55
2017-08-12T09:32:02.539Z,1.27
2017-08-12T09:34:30.122Z,1.50
2017-08-12T09:36:58.487Z,2.65
2017-08-12T09:39:26.066Z,3.37
2017-08-12T09:41:53.995Z,3.58
2017-08-12T09:44:21.679Z,3.05
2017-08-12T09:46:49.253Z,1.53
2017-08-12T09:49:16.801Z,1.27
2017-08-12T09:51:44.422Z,2.70
2017-08-12T09:54:11.998Z,2.50
2017-08-12T09:56:39.555Z,0.90
2017-08-12T09:59:07.091Z,4.20
2017-08-12T10:01:34.674Z,1.03
2017-08-12T10:04:02.214Z,1.17
2017-08-12T10:06:29.820Z,1.97
2017-08-12T10:08:57.439Z,0.80
2017-08-12T10:11:25.013Z,0.60
2017-08-12T10:13:52.625Z,0.77
2017-08-12T10:16:20.234Z,2.70
2017-08-12T10:18:48.005Z,1.17
2017-08-12T10:21:15.651Z,1.50
2017-08-12T10:23:43.182Z,1.47
2017-08-12T10:26:10.759Z,2.40
2017-08-12T10:28:38.427Z,3.03
2017-08-12T10:31:05.993Z,11.00
2017-08-12T10:33:33.568Z,1.20
2017-08-12T10:36:01.146Z,1.63
2017-08-12T10:38:29.489Z,1.00
2017-08-12T10:40:57.064Z,1.23
2017-08-12T10:43:24.902Z,2.50
2017-08-12T10:45:52.487Z,2.33
2017-08-12T10:48:20.115Z,1.43
2017-08-12T10:50:48.059Z,3.73
2017-08-12T10:53:15.731Z,1.80
2017-08-12T10:55:43.342Z,1.80
2017-08-12T10:58:11.457Z,1.10
2017-08-12T11:00:39.021Z,1.10
2017-08-12T11:03:06.604Z,1.20
2017-08-12T11:05:34.239Z,2.28
2017-08-12T11:08:01.852Z,4.47
2017-08-12T11:10:29.503Z,1.90
2017-08-12T11:12:57.084Z,2.35
2017-08-12T11:15:24.620Z,2.08
2017-08-12T11:17:52.243Z,2.00
2017-08-12T11:20:20.003Z,2.42
2017-08-12T11:22:47.584Z,2.83
2017-08-12T11:25:15.123Z,1.50
2017-08-12T11:27:42.815Z,1.07
2017-08-12T11:30:10.397Z,3.13
2017-08-12T11:32:38.090Z,2.30
2017-08-12T11:35:05.701Z,3.80
2017-08-12T11:37:33.300Z,6.70
2017-08-12T11:40:00.962Z,1.00
2017-08-12T11:42:28.625Z,3.53
2017-08-12T11:44:56.203Z,7.07
2017-08-12T11:47:23.818Z,7.12
2017-08-12T11:49:51.577Z,1.25
2017-08-12T11:52:19.226Z,1.62
2017-08-12T11:54:46.767Z,4.85
2017-08-12T11:57:14.385Z,3.75
2017-08-12T11:59:42.007Z,2.10
2017-08-12T12:02:09.563Z,1.23
2017-08-12T12:04:39.028Z,2.65
2017-08-12T12:07:06.643Z,1.98
2017-08-12T12:09:34.227Z,3.30
2017-08-12T12:12:01.856Z,4.00
2017-08-12T12:14:29.398Z,2.03
2017-08-12T12:16:56.930Z,3.58
2017-08-12T12:19:24.710Z,1.92
2017-08-12T12:21:52.322Z,2.83
2017-08-12T12:24:19.888Z,1.80
2017-08-12T12:26:47.747Z,1.30
2017-08-12T12:29:15.297Z,1.70
2017-08-12T12:31:42.846Z,1.85
2017-08-12T12:34:10.486Z,2.95
2017-08-12T12:36:38.113Z,2.10
2017-08-12T12:39:05.698Z,1.87
2017-08-12T12:41:34.363Z,1.55
2017-08-12T12:44:01.994Z,5.78
2017-08-12T12:46:29.555Z,3.25
2017-08-12T12:48:57.156Z,1.87
2017-08-12T12:51:24.747Z,3.50
2017-08-12T12:53:52.312Z,1.77
2017-08-12T12:56:19.890Z,3.20
2017-08-12T12:58:47.499Z,2.05
2017-08-12T13:01:15.995Z,1.77
2017-08-12T13:03:43.651Z,7.90
2017-08-12T13:06:11.225Z,2.42
2017-08-12T13:08:38.716Z,2.78
2017-08-12T13:11:06.334Z,4.50
2017-08-12T13:13:33.872Z,2.65
2017-08-12T13:16:01.448Z,2.78
2017-08-12T13:18:29.370Z,1.98
2017-08-12T13:20:56.880Z,1.60
2017-08-12T13:23:24.449Z,1.60
2017-08-12T13:25:51.997Z,1.73
2017-08-12T13:28:19.541Z,1.80
2017-08-12T13:30:47.104Z,2.30
2017-08-12T13:33:14.694Z,1.60
2017-08-12T13:35:42.256Z,6.57
2017-08-12T13:38:09.787Z,1.60
2017-08-12T13:40:37.383Z,1.80
2017-08-12T13:43:04.912Z,3.78
2017-08-12T13:45:32.479Z,1.90
2017-08-12T13:48:00.250Z,2.97
2017-08-12T13:50:27.827Z,1.85
2017-08-12T13:52:55.424Z,2.08
2017-08-12T13:55:23.040Z,2.42
2017-08-12T13:57:50.631Z,3.67
2017-08-12T14:00:18.217Z,1.80
2017-08-12T14:02:45.887Z,1.80
2017-08-12T14:05:13.474Z,3.12
2017-08-12T14:07:41.048Z,2.08
2017-08-12T14:10:08.785Z,2.50
2017-08-12T14:12:37.300Z,2.70
2017-08-12T14:15:04.921Z,3.05
2017-08-12T14:17:32.501Z,1.83
2017-08-12T14:20:00.096Z,2.62
2017-08-12T14:22:27.672Z,2.55
2017-08-12T14:24:55.303Z,2.75
2017-08-12T14:27:22.918Z,1.85
2017-08-12T14:29:50.501Z,2.00
2017-08-12T14:32:18.162Z,1.50
2017-08-12T14:34:46.777Z,1.60
2017-08-12T14:37:14.398Z,2.30
2017-08-12T14:39:42.847Z,1.60
2017-08-12T14:42:10.626Z,1.70
2017-08-12T14:44:38.280Z,1.58
2017-08-12T14:47:06.051Z,1.70
2017-08-12T14:49:33.653Z,2.97
2017-08-12T14:52:04.776Z,2.33
2017-08-12T14:54:32.489Z,1.62
2017-08-12T14:57:00.074Z,2.90
2017-08-12T14:59:27.889Z,2.97
2017-08-12T15:01:55.737Z,9.13
2017-08-12T15:04:23.958Z,1.70
2017-08-12T15:06:51.598Z,2.40
2017-08-12T15:09:19.352Z,2.20
2017-08-12T15:11:46.976Z,4.22
2017-08-12T15:14:14.599Z,9.30
2017-08-12T15:16:43.290Z,13.77
2017-08-12T15:19:11.417Z,3.85
2017-08-12T15:21:39.234Z,2.20
2017-08-12T15:24:06.990Z,3.58
2017-08-12T15:26:34.547Z,1.98
2017-08-12T15:29:02.116Z,2.80
2017-08-12T15:31:29.734Z,1.40
2017-08-12T15:33:57.263Z,3.90
2017-08-12T15:36:24.860Z,2.65
2017-08-12T15:38:52.652Z,1.60
2017-08-12T15:41:20.201Z,2.78
2017-08-12T15:43:47.770Z,3.67
2017-08-12T15:46:15.385Z,4.85
2017-08-12T15:48:42.942Z,1.70
2017-08-12T15:51:10.486Z,2.30
2017-08-12T15:53:38.032Z,1.40
2017-08-12T15:56:05.539Z,2.05
2017-08-12T15:58:33.130Z,3.10
2017-08-12T16:01:00.681Z,1.87
2017-08-12T16:03:28.193Z,1.67
2017-08-12T16:05:55.756Z,9.93
2017-08-12T16:08:23.453Z,2.55
2017-08-12T16:10:51.005Z,2.35
2017-08-12T16:13:18.584Z,3.15
2017-08-12T16:15:46.162Z,2.12
2017-08-12T16:18:13.718Z,2.28
2017-08-12T16:20:41.324Z,1.73
2017-08-12T16:23:08.914Z,2.50
2017-08-12T16:25:36.491Z,3.40
2017-08-12T16:28:04.018Z,2.37
2017-08-12T16:30:31.657Z,1.95
2017-08-12T16:32:59.250Z,1.92
2017-08-12T16:35:26.820Z,10.45
2017-08-12T16:37:54.525Z,11.63
2017-08-12T16:40:22.074Z,2.47
2017-08-12T16:42:49.672Z,3.90
2017-08-12T16:45:17.403Z,2.10
2017-08-12T16:47:44.974Z,1.95
2017-08-12T16:50:12.561Z,3.22
2017-08-12T16:52:40.205Z,2.20
2017-08-12T16:55:07.746Z,2.65
2017-08-12T16:57:35.245Z,2.80
2017-08-12T17:00:02.828Z,2.37
2017-08-12T17:02:30.409Z,2.20
2017-08-12T17:04:58.037Z,3.20
2017-08-12T17:07:25.652Z,3.10
2017-08-12T17:09:53.185Z,3.67
2017-08-12T17:12:20.769Z,8.02
2017-08-12T17:14:48.596Z,2.15
2017-08-12T17:17:16.127Z,3.15
2017-08-12T17:19:43.713Z,3.37
2017-08-12T17:22:11.539Z,2.72
2017-08-12T17:24:39.075Z,4.68
2017-08-12T17:27:06.651Z,3.10
2017-08-12T17:29:34.944Z,3.97
2017-08-12T17:32:02.512Z,3.47
2017-08-12T17:34:30.135Z,10.75
2017-08-12T17:36:57.733Z,16.55
2017-08-12T17:39:25.394Z,35.42
2017-08-12T17:41:52.969Z,24.77
2017-08-12T17:44:20.590Z,17.90
2017-08-12T17:46:48.142Z,10.70
2017-08-12T17:49:15.691Z,26.10
2017-08-12T17:51:43.365Z,15.30
2017-08-12T17:54:10.941Z,16.15
2017-08-12T17:56:38.483Z,19.65
2017-08-12T17:59:06.063Z,9.82
2017-08-12T18:01:33.623Z,29.58
2017-08-12T18:04:01.206Z,16.65
2017-08-12T18:06:28.873Z,14.60
2017-08-12T18:08:56.358Z,4.45
2017-08-12T18:11:23.934Z,4.37
2017-08-12T18:13:51.539Z,4.18
2017-08-12T18:16:19.069Z,5.85
2017-08-12T18:18:46.646Z,4.10
2017-08-12T18:21:14.295Z,4.35
2017-08-12T18:23:41.857Z,4.32
2017-08-12T18:26:09.422Z,3.97
2017-08-12T18:28:37.167Z,6.20
2017-08-12T18:31:04.725Z,12.07
2017-08-12T18:33:32.248Z,180.27
2017-08-12T18:35:59.841Z,18.15
2017-08-12T18:38:27.448Z,8.23
2017-08-12T18:40:55.954Z,22.73
2017-08-12T18:43:23.626Z,17.37
2017-08-12T18:45:51.234Z,7.78
2017-08-12T18:48:18.764Z,9.80
2017-08-12T18:50:46.521Z,12.77
2017-08-12T18:53:14.090Z,24.58
2017-08-12T18:55:41.705Z,28.40
2017-08-12T18:58:10.175Z,19.75
2017-08-12T19:00:37.741Z,14.75
2017-08-12T19:03:05.288Z,13.75
2017-08-12T19:05:33.076Z,31.52
2017-08-12T19:08:00.636Z,25.12
2017-08-12T19:10:28.194Z,23.73
2017-08-12T19:12:55.978Z,20.00
2017-08-12T19:15:23.528Z,17.42
2017-08-12T19:17:51.088Z,17.15
2017-08-12T19:20:18.648Z,14.65
2017-08-12T19:22:46.241Z,23.17
2017-08-12T19:25:14.656Z,27.02
2017-08-12T19:27:42.285Z,19.52
2017-08-12T19:30:09.805Z,18.17
2017-08-12T19:32:37.294Z,16.73
2017-08-12T19:35:04.939Z,47.75
2017-08-12T19:37:32.529Z,18.58
2017-08-12T19:40:00.082Z,16.20
2017-08-12T19:42:27.717Z,31.58
2017-08-12T19:44:55.288Z,43.10
2017-08-12T19:47:23.633Z,28.98
2017-08-12T19:49:51.307Z,26.87
2017-08-12T19:52:18.907Z,16.98
2017-08-12T19:54:46.497Z,22.40
2017-08-12T19:57:15.076Z,21.00
2017-08-12T19:59:42.642Z,13.95
2017-08-12T20:02:10.235Z,25.95
2017-08-12T20:04:37.847Z,29.73
2017-08-12T20:07:05.467Z,23.12
2017-08-12T20:09:33.063Z,19.30
2017-08-12T20:12:00.662Z,15.77
2017-08-12T20:14:28.222Z,20.55
2017-08-12T20:16:55.851Z,13.65
2017-08-12T20:19:23.478Z,17.67
2017-08-12T20:21:51.061Z,10.60
2017-08-12T20:24:18.661Z,16.85
2017-08-12T20:26:46.300Z,15.30
2017-08-12T20:29:13.887Z,23.50
2017-08-12T20:31:41.555Z,43.40
2017-08-12T20:34:09.185Z,16.87
2017-08-12T20:36:36.784Z,11.88
2017-08-12T20:39:04.309Z,14.48
2017-08-12T20:41:31.923Z,22.37
2017-08-12T20:43:59.518Z,19.45
2017-08-12T20:46:27.153Z,8.88
2017-08-12T20:48:55.327Z,18.80
2017-08-12T20:51:22.910Z,7.90
2017-08-12T20:53:50.491Z,15.73
2017-08-12T20:56:18.241Z,30.65
2017-08-12T20:58:45.823Z,16.75
2017-08-12T21:01:13.408Z,10.60
2017-08-12T21:03:40.989Z,9.90
2017-08-12T21:06:08.545Z,14.13
2017-08-12T21:08:36.139Z,10.80
2017-08-12T21:11:03.879Z,11.02
2017-08-12T21:13:31.460Z,10.65
2017-08-12T21:15:59.026Z,10.75
2017-08-12T21:18:26.791Z,9.00
2017-08-12T21:20:54.362Z,8.63
2017-08-12T21:23:22.219Z,10.73
2017-08-12T21:25:50.635Z,10.75
2017-08-12T21:28:18.186Z,13.88
2017-08-12T21:30:45.800Z,7.72
2017-08-12T21:33:13.393Z,11.23
2017-08-12T21:35:41.075Z,10.63
2017-08-12T21:38:08.706Z,12.07
2017-08-12T21:40:36.320Z,10.98
2017-08-12T21:43:03.929Z,9.25
2017-08-12T21:45:31.468Z,11.35
2017-08-12T21:47:59.222Z,13.68
2017-08-12T21:50:26.774Z,8.27
2017-08-12T21:52:54.334Z,7.72
2017-08-12T21:55:21.963Z,7.28
2017-08-12T21:57:49.513Z,16.85
2017-08-12T22:00:17.081Z,12.27
2017-08-12T22:02:44.661Z,10.80
2017-08-12T22:05:12.203Z,5.70
2017-08-12T22:07:39.780Z,9.30
2017-08-12T22:10:07.586Z,6.00
2017-08-12T22:12:35.128Z,9.63
2017-08-12T22:15:02.641Z,6.57
2017-08-12T22:17:30.383Z,6.47
2017-08-12T22:19:57.982Z,8.05
2017-08-12T22:22:25.495Z,6.25
2017-08-12T22:24:53.138Z,5.65
2017-08-12T22:27:20.723Z,7.85
2017-08-12T22:29:48.286Z,7.00
2017-08-12T22:32:15.886Z,7.57
2017-08-12T22:34:43.590Z,5.72
2017-08-12T22:37:11.142Z,5.12
2017-08-12T22:39:38.744Z,7.35
2017-08-12T22:42:06.291Z,6.82
2017-08-12T22:44:33.869Z,11.48
2017-08-12T22:47:01.616Z,5.45
2017-08-12T22:49:29.158Z,7.95
2017-08-12T22:51:56.674Z,8.07
2017-08-12T22:54:24.425Z,7.60
2017-08-12T22:56:51.991Z,23.20
2017-08-12T22:59:19.515Z,6.80
2017-08-12T23:01:47.106Z,7.12
2017-08-12T23:04:14.685Z,7.20
2017-08-12T23:06:42.251Z,5.10
2017-08-12T23:09:09.822Z,6.57
2017-08-12T23:11:37.361Z,5.87
2017-08-12T23:14:04.914Z,4.90
2017-08-12T23:16:32.500Z,6.40
2017-08-12T23:19:00.004Z,4.95
2017-08-12T23:21:27.559Z,4.65
2017-08-12T23:23:55.168Z,5.43
2017-08-12T23:26:22.714Z,9.75
2017-08-12T23:28:50.251Z,5.15
2017-08-12T23:31:17.872Z,5.12
2017-08-12T23:33:45.367Z,7.25
2017-08-12T23:36:12.920Z,5.95
2017-08-12T23:38:40.540Z,4.25
2017-08-12T23:41:08.097Z,11.60
2017-08-12T23:43:35.636Z,7.35
2017-08-12T23:46:03.263Z,4.22
2017-08-12T23:48:30.794Z,3.62
2017-08-12T23:50:58.330Z,6.97
2017-08-12T23:53:25.933Z,3.70
2017-08-12T23:55:53.461Z,3.62
2017-08-12T23:58:21.012Z,3.67
